createdAt,value
2022-11-16T00:01:22.939Z,5.80
2022-11-16T00:03:51.142Z,5.80
2022-11-16T00:06:18.270Z,5.80
2022-11-16T00:09:06.376Z,5.80
2022-11-16T00:11:33.413Z,5.80
2022-11-16T00:14:00.213Z,5.80
2022-11-16T00:16:26.939Z,5.80
2022-11-16T00:18:58.133Z,5.90
2022-11-16T00:21:25.446Z,5.90
2022-11-16T00:23:52.236Z,5.90
2022-11-16T00:26:19.240Z,5.90
2022-11-16T00:28:46.266Z,5.90
2022-11-16T00:31:13.250Z,5.90
2022-11-16T00:33:40.171Z,5.90
2022-11-16T00:36:08.503Z,5.80
2022-11-16T00:38:35.652Z,5.80
2022-11-16T00:41:02.621Z,5.80
2022-11-16T00:43:29.376Z,5.70
2022-11-16T00:45:56.197Z,5.70
2022-11-16T00:48:22.904Z,5.70
2022-11-16T00:50:49.739Z,5.70
2022-11-16T00:53:17.635Z,5.70
2022-11-16T00:55:44.837Z,5.70
2022-11-16T00:58:11.921Z,5.70
2022-11-16T01:00:38.953Z,5.80
2022-11-16T01:03:05.773Z,5.80
2022-11-16T01:05:32.545Z,5.80
2022-11-16T01:07:59.315Z,5.80
2022-11-16T01:10:26.342Z,5.80
2022-11-16T01:12:54.646Z,5.80
2022-11-16T01:15:22.925Z,5.80
2022-11-16T01:17:49.867Z,5.80
2022-11-16T01:20:23.945Z,5.80
2022-11-16T01:22:50.720Z,5.80
2022-11-16T01:25:17.635Z,5.80
2022-11-16T01:27:44.507Z,5.90
2022-11-16T01:30:12.693Z,5.90
2022-11-16T01:32:39.486Z,5.80
2022-11-16T01:35:06.674Z,5.90
2022-11-16T01:37:33.618Z,5.90
2022-11-16T01:40:00.397Z,5.90
2022-11-16T01:42:28.688Z,5.80
2022-11-16T01:44:58.523Z,5.80
2022-11-16T01:47:25.327Z,5.80
2022-11-16T01:49:55.087Z,5.80
2022-11-16T01:52:25.302Z,5.80
2022-11-16T01:54:52.660Z,5.90
2022-11-16T01:57:24.278Z,5.90
2022-11-16T01:59:54.083Z,5.90
2022-11-16T02:02:20.952Z,5.90
2022-11-16T02:04:47.785Z,5.90
2022-11-16T02:10:57.449Z,6.00
2022-11-16T02:13:30.913Z,6.00
2022-11-16T02:16:32.040Z,6.00
2022-11-16T02:19:28.069Z,6.00
2022-11-16T02:22:41.282Z,6.00
2022-11-16T02:25:30.764Z,6.00
2022-11-16T02:28:23.797Z,6.00
2022-11-16T02:30:50.959Z,6.00
2022-11-16T02:33:20.429Z,6.00
2022-11-16T02:35:48.395Z,6.00
2022-11-16T02:38:26.453Z,6.00
2022-11-16T02:40:56.062Z,6.00
2022-11-16T02:43:32.303Z,6.00
2022-11-16T02:46:00.843Z,6.00
2022-11-16T02:48:31.213Z,6.10
2022-11-16T02:50:58.150Z,6.10
2022-11-16T02:53:25.225Z,6.10
2022-11-16T02:55:52.109Z,6.10
2022-11-16T02:58:21.140Z,6.10
2022-11-16T03:00:58.791Z,6.20
2022-11-16T03:03:28.638Z,6.20
2022-11-16T03:05:58.485Z,6.20
2022-11-16T03:08:36.559Z,6.20
2022-11-16T03:11:26.938Z,6.20
2022-11-16T03:13:58.779Z,6.20
2022-11-16T03:16:36.778Z,6.20
2022-11-16T03:19:05.818Z,6.20
2022-11-16T03:21:57.482Z,6.30
2022-11-16T03:29:55.608Z,6.40
2022-11-16T03:32:34.054Z,6.40
2022-11-16T03:35:29.171Z,6.40
2022-11-16T03:37:57.520Z,6.40
2022-11-16T03:40:25.146Z,6.40
2022-11-16T03:42:51.957Z,6.40
2022-11-16T03:45:18.943Z,6.40
2022-11-16T03:47:45.919Z,6.40
2022-11-16T03:50:12.713Z,6.40
2022-11-16T03:53:32.162Z,6.40
2022-11-16T03:55:59.056Z,6.30
2022-11-16T03:58:25.871Z,6.30
2022-11-16T04:00:53.348Z,6.30
2022-11-16T04:09:59.635Z,6.30
2022-11-16T04:12:44.912Z,6.30
2022-11-16T04:15:30.292Z,6.30
2022-11-16T04:19:30.787Z,6.30
2022-11-16T04:22:21.370Z,6.30
2022-11-16T04:24:50.651Z,6.20
2022-11-16T04:27:50.002Z,6.30
2022-11-16T04:30:16.917Z,6.30
2022-11-16T04:33:01.993Z,6.30
2022-11-16T04:35:47.334Z,6.30
2022-11-16T04:38:14.317Z,6.30
2022-11-16T04:40:41.177Z,6.40
2022-11-16T04:43:07.977Z,6.40
2022-11-16T04:47:41.236Z,6.40
2022-11-16T04:50:08.337Z,6.50
2022-11-16T04:52:35.109Z,6.50
2022-11-16T04:55:01.907Z,6.50
2022-11-16T04:57:28.848Z,6.50
2022-11-16T04:59:55.709Z,6.50
2022-11-16T05:02:22.491Z,6.60
2022-11-16T05:04:49.269Z,6.60
2022-11-16T05:07:16.173Z,6.60
2022-11-16T05:09:44.345Z,6.60
2022-11-16T05:12:12.142Z,6.60
2022-11-16T05:14:38.884Z,6.60
2022-11-16T05:17:05.783Z,6.60
2022-11-16T05:19:51.395Z,6.60
2022-11-16T05:22:18.217Z,6.60
2022-11-16T05:24:45.035Z,6.60
2022-11-16T05:29:26.550Z,6.60
2022-11-16T05:31:53.333Z,6.60
2022-11-16T05:34:20.078Z,6.60
2022-11-16T05:36:46.862Z,6.60
2022-11-16T05:39:13.703Z,6.60
2022-11-16T05:41:40.498Z,6.60
2022-11-16T05:44:07.249Z,6.60
2022-11-16T05:46:34.128Z,6.60
2022-11-16T05:49:00.908Z,6.60
2022-11-16T05:51:27.759Z,6.60
2022-11-16T05:53:55.700Z,6.60
2022-11-16T05:56:34.937Z,6.60
2022-11-16T06:00:21.860Z,6.60
2022-11-16T06:02:48.676Z,6.60
2022-11-16T06:05:15.535Z,6.60
2022-11-16T06:07:42.333Z,6.50
2022-11-16T06:10:09.460Z,6.50
2022-11-16T06:12:36.238Z,6.50
2022-11-16T06:15:03.126Z,6.50
2022-11-16T06:17:30.045Z,6.50
2022-11-16T06:19:57.107Z,6.50
2022-11-16T06:22:23.892Z,6.50
2022-11-16T06:24:50.631Z,6.50
2022-11-16T06:27:17.405Z,6.60
2022-11-16T06:29:44.239Z,6.60
2022-11-16T06:32:11.048Z,6.50
2022-11-16T06:34:37.856Z,6.50
2022-11-16T06:38:27.477Z,6.50
2022-11-16T06:40:58.212Z,6.50
2022-11-16T06:45:57.741Z,6.50
2022-11-16T06:51:31.853Z,6.50
2022-11-16T06:53:58.609Z,6.50
2022-11-16T06:57:09.658Z,6.50
2022-11-16T06:59:36.460Z,6.50
2022-11-16T07:02:03.309Z,6.50
2022-11-16T07:04:31.506Z,6.50
2022-11-16T07:06:58.710Z,6.50
2022-11-16T07:11:52.674Z,6.50
2022-11-16T07:14:19.430Z,6.60
2022-11-16T07:16:46.228Z,6.60
2022-11-16T07:19:13.016Z,6.60
2022-11-16T07:21:39.896Z,6.60
2022-11-16T07:24:06.790Z,6.60
2022-11-16T07:26:34.138Z,6.60
2022-11-16T07:29:01.141Z,6.70
2022-11-16T07:31:28.103Z,6.70
2022-11-16T07:33:54.882Z,6.70
2022-11-16T07:36:21.724Z,6.70
2022-11-16T07:38:48.544Z,6.80
2022-11-16T07:41:17.074Z,6.70
2022-11-16T07:43:47.222Z,6.80
2022-11-16T07:49:10.970Z,6.80
2022-11-16T07:51:38.231Z,6.90
2022-11-16T07:54:06.537Z,6.90
2022-11-16T07:56:33.445Z,6.90
2022-11-16T07:59:00.648Z,6.90
2022-11-16T08:01:27.430Z,6.90
2022-11-16T08:03:54.362Z,6.90
2022-11-16T08:09:51.756Z,7.10
2022-11-16T08:12:18.650Z,7.10
2022-11-16T08:14:45.410Z,7.10
2022-11-16T08:17:12.283Z,7.10
2022-11-16T08:22:07.027Z,7.10
2022-11-16T08:24:33.917Z,7.10
2022-11-16T08:27:00.766Z,7.10
2022-11-16T08:29:27.582Z,7.10
2022-11-16T08:31:54.390Z,7.10
2022-11-16T08:37:01.565Z,7.20
2022-11-16T08:39:28.391Z,7.10
2022-11-16T08:41:55.239Z,7.20
2022-11-16T08:44:22.032Z,7.20
2022-11-16T08:46:48.817Z,7.20
2022-11-16T08:49:15.695Z,7.20
2022-11-16T08:51:42.464Z,7.20
2022-11-16T08:54:09.506Z,7.30
2022-11-16T08:56:36.318Z,7.30
2022-11-16T08:59:03.173Z,7.30
2022-11-16T09:01:30.744Z,7.30
2022-11-16T09:03:57.626Z,7.30
2022-11-16T09:06:25.092Z,7.30
2022-11-16T09:08:51.900Z,7.30
2022-11-16T09:11:20.521Z,7.30
2022-11-16T09:13:49.135Z,7.30
2022-11-16T09:16:16.792Z,7.40
2022-11-16T09:18:44.610Z,7.40
2022-11-16T09:23:38.591Z,7.40
2022-11-16T09:26:39.915Z,7.40
2022-11-16T09:29:06.749Z,7.50
2022-11-16T09:31:37.439Z,7.90
2022-11-16T09:34:04.359Z,7.60
2022-11-16T09:36:31.338Z,7.60
2022-11-16T09:42:00.184Z,7.60
2022-11-16T09:44:37.829Z,7.60
2022-11-16T09:47:04.688Z,7.60
2022-11-16T09:49:33.624Z,7.60
2022-11-16T09:52:02.177Z,7.60
2022-11-16T09:54:34.321Z,7.70
2022-11-16T09:57:03.325Z,7.70
2022-11-16T09:59:38.221Z,7.90
2022-11-16T10:02:34.125Z,7.90
2022-11-16T10:05:16.031Z,7.90
2022-11-16T10:07:44.859Z,8.00
2022-11-16T10:10:15.552Z,8.00
2022-11-16T10:12:56.012Z,8.00
2022-11-16T10:15:37.233Z,8.10
2022-11-16T10:18:07.368Z,8.10
2022-11-16T10:21:11.010Z,8.10
2022-11-16T10:23:46.702Z,8.20
2022-11-16T10:26:16.756Z,8.20
2022-11-16T10:29:05.200Z,8.20
2022-11-16T10:32:03.066Z,8.30
2022-11-16T10:34:41.680Z,8.30
2022-11-16T10:37:10.056Z,8.30
2022-11-16T10:39:40.927Z,8.30
2022-11-16T10:42:12.643Z,8.30
2022-11-16T10:45:02.526Z,8.30
2022-11-16T10:47:57.863Z,8.30
2022-11-16T10:50:53.854Z,8.30
2022-11-16T10:54:23.687Z,8.40
2022-11-16T10:56:55.440Z,8.50
2022-11-16T10:59:22.491Z,8.50
2022-11-16T11:01:50.322Z,8.60
2022-11-16T11:04:17.067Z,8.60
2022-11-16T11:06:44.289Z,8.70
2022-11-16T11:09:32.920Z,8.70
2022-11-16T11:12:39.357Z,8.70
2022-11-16T11:15:10.901Z,8.70
2022-11-16T11:17:38.561Z,8.70
2022-11-16T11:20:14.657Z,8.70
2022-11-16T11:23:00.137Z,8.70
2022-11-16T11:25:37.570Z,8.70
2022-11-16T11:28:28.584Z,8.70
2022-11-16T11:31:06.736Z,8.70
2022-11-16T11:33:42.063Z,8.80
2022-11-16T11:36:09.244Z,8.80
2022-11-16T11:38:36.676Z,8.90
2022-11-16T11:41:05.278Z,8.90
2022-11-16T11:43:34.352Z,9.00
2022-11-16T11:46:07.212Z,9.10
2022-11-16T11:48:54.417Z,9.10
2022-11-16T11:54:05.257Z,9.10
2022-11-16T11:56:34.148Z,9.20
2022-11-16T11:59:00.942Z,9.20
2022-11-16T12:01:39.547Z,9.20
2022-11-16T12:04:25.340Z,9.20
2022-11-16T12:07:14.843Z,9.20
2022-11-16T12:09:59.762Z,9.20
2022-11-16T12:12:49.905Z,9.20
2022-11-16T12:15:38.107Z,9.20
2022-11-16T12:18:14.124Z,9.20
2022-11-16T12:20:50.471Z,9.20
2022-11-16T12:23:54.041Z,9.30
2022-11-16T12:26:58.403Z,9.40
2022-11-16T12:29:41.445Z,9.50
2022-11-16T12:34:48.592Z,9.60
2022-11-16T12:37:25.349Z,9.60
2022-11-16T12:40:29.827Z,9.70
2022-11-16T12:43:08.876Z,9.70
2022-11-16T12:45:45.900Z,9.70
2022-11-16T12:48:34.244Z,9.70
2022-11-16T12:51:07.473Z,9.80
2022-11-16T12:53:39.191Z,9.90
2022-11-16T12:56:27.975Z,9.80
2022-11-16T12:59:00.600Z,9.90
2022-11-16T13:01:41.811Z,9.90
2022-11-16T13:04:16.278Z,9.80
2022-11-16T13:07:24.170Z,9.80
2022-11-16T13:09:55.625Z,9.80
2022-11-16T13:12:23.504Z,9.70
2022-11-16T13:14:51.474Z,9.70
2022-11-16T13:17:28.950Z,9.70
2022-11-16T13:20:05.537Z,9.70
2022-11-16T13:22:34.387Z,9.70
2022-11-16T13:25:12.952Z,9.70
2022-11-16T13:27:49.497Z,9.70
2022-11-16T13:30:29.518Z,9.70
2022-11-16T13:32:59.258Z,9.80
2022-11-16T13:35:26.074Z,9.80
2022-11-16T13:37:52.971Z,9.90
2022-11-16T13:40:32.996Z,10.00
2022-11-16T13:43:02.804Z,10.00
2022-11-16T13:45:50.122Z,10.00
2022-11-16T13:48:34.489Z,10.10
2022-11-16T13:51:06.038Z,9.10
2022-11-16T13:56:28.316Z,10.00
2022-11-16T13:58:56.011Z,10.00
2022-11-16T14:01:23.820Z,10.10
2022-11-16T14:03:51.772Z,10.10
2022-11-16T14:06:24.831Z,10.10
2022-11-16T14:08:55.307Z,10.10
2022-11-16T14:11:32.240Z,10.20
2022-11-16T14:14:02.351Z,10.30
2022-11-16T14:16:29.299Z,10.30
2022-11-16T14:18:57.269Z,10.40
2022-11-16T14:21:48.997Z,10.40
2022-11-16T14:24:18.818Z,10.40
2022-11-16T14:26:45.587Z,10.30
2022-11-16T14:29:34.967Z,10.30
2022-11-16T14:32:02.936Z,10.20
2022-11-16T14:34:43.699Z,10.10
2022-11-16T14:37:30.740Z,10.00
2022-11-16T14:40:07.537Z,10.00
2022-11-16T14:43:17.839Z,10.00
2022-11-16T14:45:39.440Z,9.90
2022-11-16T14:48:17.120Z,9.90
2022-11-16T14:50:44.425Z,9.90
2022-11-16T14:53:14.665Z,9.90
2022-11-16T14:55:42.663Z,9.90
2022-11-16T14:58:10.344Z,9.90
2022-11-16T15:00:37.270Z,9.90
2022-11-16T15:03:04.535Z,10.00
2022-11-16T15:05:34.622Z,9.90
2022-11-16T15:08:01.505Z,9.90
2022-11-16T15:10:28.552Z,9.90
2022-11-16T15:12:56.021Z,9.80
2022-11-16T15:15:26.817Z,9.80
2022-11-16T15:18:07.149Z,9.80
2022-11-16T15:20:36.079Z,9.70
2022-11-16T15:23:04.089Z,9.70
2022-11-16T15:25:37.339Z,9.70
2022-11-16T15:28:05.826Z,9.70
2022-11-16T15:30:34.392Z,9.60
2022-11-16T15:33:09.410Z,9.60
2022-11-16T15:35:36.852Z,9.60
2022-11-16T15:38:20.179Z,9.50
2022-11-16T15:40:54.908Z,9.40
2022-11-16T15:43:23.686Z,9.40
2022-11-16T15:45:50.453Z,9.40
2022-11-16T15:48:24.646Z,9.30
2022-11-16T15:51:14.761Z,9.30
2022-11-16T15:53:45.547Z,9.30
2022-11-16T15:56:27.444Z,9.30
2022-11-16T15:58:54.982Z,9.30
2022-11-16T16:01:22.029Z,9.20
2022-11-16T16:04:05.943Z,9.20
2022-11-16T16:06:52.736Z,9.20
2022-11-16T16:09:28.733Z,9.20
2022-11-16T16:11:56.995Z,9.20
2022-11-16T16:14:30.778Z,9.20
2022-11-16T16:25:33.290Z,9.30
2022-11-16T16:28:00.243Z,9.20
2022-11-16T16:30:28.142Z,9.20
2022-11-16T16:36:56.309Z,9.20
2022-11-16T16:41:23.953Z,9.20
2022-11-16T16:43:51.612Z,9.10
2022-11-16T16:47:22.909Z,9.10
2022-11-16T16:49:49.766Z,9.10
2022-11-16T16:52:16.594Z,9.10
2022-11-16T16:57:16.207Z,9.10
2022-11-16T17:07:29.810Z,9.00
2022-11-16T17:09:56.699Z,9.00
2022-11-16T17:12:23.552Z,9.00
2022-11-16T17:14:53.153Z,9.00
2022-11-16T17:17:20.159Z,9.00
2022-11-16T17:21:39.954Z,9.00
2022-11-16T17:24:06.877Z,8.90
2022-11-16T17:26:33.657Z,8.90
2022-11-16T17:29:00.442Z,8.90
2022-11-16T17:31:28.345Z,8.90
2022-11-16T17:33:57.424Z,8.90
2022-11-16T17:36:24.200Z,8.90
2022-11-16T17:38:50.999Z,8.90
2022-11-16T17:41:19.116Z,8.90
2022-11-16T17:43:46.370Z,8.90
2022-11-16T17:46:17.522Z,8.90
2022-11-16T17:48:45.330Z,9.00
2022-11-16T17:51:13.106Z,9.00
2022-11-16T17:53:40.731Z,8.90
2022-11-16T17:57:18.786Z,8.90
2022-11-16T17:59:45.750Z,8.90
2022-11-16T18:02:12.547Z,8.90
2022-11-16T18:04:39.403Z,8.80
2022-11-16T18:07:06.231Z,8.80
2022-11-16T18:09:33.023Z,8.80
2022-11-16T18:11:59.859Z,8.80
2022-11-16T18:16:29.984Z,8.80
2022-11-16T18:22:06.273Z,8.70
2022-11-16T18:24:33.106Z,8.70
2022-11-16T18:26:59.886Z,8.70
2022-11-16T18:31:29.904Z,8.70
2022-11-16T18:33:56.689Z,8.70
2022-11-16T18:37:13.768Z,8.70
2022-11-16T18:39:40.558Z,8.60
2022-11-16T18:44:24.872Z,8.50
2022-11-16T18:50:16.327Z,8.50
2022-11-16T18:52:46.000Z,8.40
2022-11-16T18:55:12.758Z,8.40
2022-11-16T18:57:39.590Z,8.40
2022-11-16T19:00:07.069Z,8.40
2022-11-16T19:02:33.886Z,8.50
2022-11-16T19:05:00.643Z,8.40
2022-11-16T19:07:27.637Z,8.40
2022-11-16T19:09:54.451Z,8.40
2022-11-16T19:14:24.312Z,8.30
2022-11-16T19:16:56.767Z,8.40
2022-11-16T19:19:25.289Z,8.30
2022-11-16T19:22:33.792Z,8.30
2022-11-16T19:25:06.065Z,8.20
2022-11-16T19:27:33.109Z,8.20
2022-11-16T19:29:59.878Z,8.30
2022-11-16T19:32:26.685Z,8.30
2022-11-16T19:34:53.465Z,8.20
2022-11-16T19:37:20.981Z,8.30
2022-11-16T19:42:54.226Z,8.30
2022-11-16T19:45:21.029Z,8.30
2022-11-16T19:47:48.073Z,8.20
2022-11-16T19:50:15.073Z,8.30
2022-11-16T19:52:43.572Z,8.30
2022-11-16T19:55:10.358Z,8.30
2022-11-16T19:58:37.108Z,8.30
2022-11-16T20:01:05.024Z,8.30
2022-11-16T20:03:32.170Z,8.20
2022-11-16T20:06:11.296Z,8.30
2022-11-16T20:08:38.664Z,8.30
2022-11-16T20:11:13.172Z,8.30
2022-11-16T20:13:40.064Z,8.30
2022-11-16T20:17:03.123Z,8.30
2022-11-16T20:19:29.931Z,8.30
2022-11-16T20:27:07.585Z,8.30
2022-11-16T20:29:34.358Z,8.30
2022-11-16T20:32:01.146Z,8.30
2022-11-16T20:36:55.163Z,8.20
2022-11-16T20:39:21.974Z,8.20
2022-11-16T20:41:48.803Z,8.20
2022-11-16T20:44:21.956Z,8.20
2022-11-16T20:49:11.831Z,8.20
2022-11-16T20:51:38.704Z,8.20
2022-11-16T20:54:05.587Z,8.20
2022-11-16T20:58:32.727Z,8.30
2022-11-16T21:04:23.438Z,8.30
2022-11-16T21:06:50.490Z,8.30
2022-11-16T21:10:26.120Z,8.30
2022-11-16T21:17:05.707Z,8.40
2022-11-16T21:23:46.712Z,8.40
2022-11-16T21:25:17.109Z,8.50
2022-11-16T21:27:43.953Z,8.50
2022-11-16T21:31:44.401Z,8.50
2022-11-16T21:40:29.070Z,8.50
2022-11-16T21:48:36.170Z,8.40
2022-11-16T21:53:11.963Z,8.40
2022-11-16T21:55:38.697Z,8.40
2022-11-16T21:58:05.469Z,8.40
2022-11-16T22:00:32.274Z,8.40
2022-11-16T22:02:59.182Z,8.40
2022-11-16T22:05:44.544Z,8.40
2022-11-16T22:08:14.154Z,8.40
2022-11-16T22:10:41.018Z,8.30
2022-11-16T22:13:07.836Z,8.30
2022-11-16T22:15:34.562Z,8.30
2022-11-16T22:18:01.696Z,8.20
2022-11-16T22:20:28.445Z,8.20
2022-11-16T22:24:37.389Z,8.30
2022-11-16T22:27:04.444Z,8.30
2022-11-16T22:29:31.266Z,8.30
2022-11-16T22:31:58.016Z,8.30
2022-11-16T22:34:24.829Z,8.30
2022-11-16T22:36:51.583Z,8.30
2022-11-16T22:39:18.462Z,8.30
2022-11-16T22:41:45.222Z,8.30
2022-11-16T22:44:12.065Z,8.30
2022-11-16T22:47:00.457Z,8.30
2022-11-16T22:49:27.347Z,8.30
2022-11-16T22:51:54.183Z,8.30
2022-11-16T22:54:25.967Z,8.30
2022-11-16T23:01:37.240Z,8.20
2022-11-16T23:04:04.255Z,8.20
2022-11-16T23:08:16.487Z,8.10
2022-11-16T23:11:01.738Z,8.20
2022-11-16T23:13:47.280Z,8.10
2022-11-16T23:16:14.060Z,8.10
2022-11-16T23:22:59.389Z,8.00
2022-11-16T23:27:56.468Z,8.00
2022-11-16T23:33:59.903Z,8.00
2022-11-16T23:36:26.692Z,7.90
2022-11-16T23:38:53.450Z,8.00
2022-11-16T23:41:38.746Z,7.90
2022-11-16T23:54:12.472Z,7.90
2022-11-16T23:56:40.544Z,7.90
2022-11-16T23:59:07.384Z,7.90
